sensor_id;sensor_type;location;lat;lon;timestamp;P1;durP1;ratioP1;P2;durP2;ratioP2
12591;SDS011;6361;52.120;5.108;2023-05-17T00:02:05;17.15;;;4.78;;
12591;SDS011;6361;52.120;5.108;2023-05-17T00:04:30;25.85;;;4.97;;
12591;SDS011;6361;52.120;5.108;2023-05-17T00:06:57;17.33;;;4.88;;
12591;SDS011;6361;52.120;5.108;2023-05-17T00:09:22;18.52;;;5.45;;
12591;SDS011;6361;52.120;5.108;2023-05-17T00:11:47;18.95;;;5.18;;
12591;SDS011;6361;52.120;5.108;2023-05-17T00:14:13;21.10;;;5.05;;
12591;SDS011;6361;52.120;5.108;2023-05-17T00:16:38;18.38;;;4.78;;
12591;SDS011;6361;52.120;5.108;2023-05-17T00:19:04;21.33;;;5.68;;
12591;SDS011;6361;52.120;5.108;2023-05-17T00:21:29;24.38;;;4.95;;
12591;SDS011;6361;52.120;5.108;2023-05-17T00:23:55;18.58;;;4.70;;
12591;SDS011;6361;52.120;5.108;2023-05-17T00:26:20;18.35;;;4.47;;
12591;SDS011;6361;52.120;5.108;2023-05-17T00:28:46;17.13;;;4.70;;
12591;SDS011;6361;52.120;5.108;2023-05-17T00:31:11;24.20;;;5.18;;
12591;SDS011;6361;52.120;5.108;2023-05-17T00:33:36;16.92;;;4.80;;
12591;SDS011;6361;52.120;5.108;2023-05-17T00:36:02;15.20;;;4.57;;
12591;SDS011;6361;52.120;5.108;2023-05-17T00:38:27;17.60;;;4.72;;
12591;SDS011;6361;52.120;5.108;2023-05-17T00:40:53;19.75;;;4.85;;
12591;SDS011;6361;52.120;5.108;2023-05-17T00:43:18;17.35;;;5.10;;
12591;SDS011;6361;52.120;5.108;2023-05-17T00:45:47;19.98;;;5.20;;
12591;SDS011;6361;52.120;5.108;2023-05-17T00:48:14;20.38;;;4.80;;
12591;SDS011;6361;52.120;5.108;2023-05-17T00:50:39;18.45;;;5.50;;
12591;SDS011;6361;52.120;5.108;2023-05-17T00:53:05;14.00;;;5.15;;
12591;SDS011;6361;52.120;5.108;2023-05-17T00:55:31;17.55;;;5.15;;
12591;SDS011;6361;52.120;5.108;2023-05-17T00:57:56;18.60;;;5.13;;
12591;SDS011;6361;52.120;5.108;2023-05-17T01:00:21;17.58;;;5.43;;
12591;SDS011;6361;52.120;5.108;2023-05-17T01:02:47;16.73;;;5.25;;
12591;SDS011;6361;52.120;5.108;2023-05-17T01:05:13;20.17;;;5.40;;
12591;SDS011;6361;52.120;5.108;2023-05-17T01:07:39;17.00;;;4.93;;
12591;SDS011;6361;52.120;5.108;2023-05-17T01:10:05;15.57;;;5.32;;
12591;SDS011;6361;52.120;5.108;2023-05-17T01:12:35;21.08;;;5.22;;
12591;SDS011;6361;52.120;5.108;2023-05-17T01:15:13;19.23;;;5.65;;
12591;SDS011;6361;52.120;5.108;2023-05-17T01:17:43;24.48;;;5.85;;
12591;SDS011;6361;52.120;5.108;2023-05-17T01:22:52;20.23;;;5.38;;
12591;SDS011;6361;52.120;5.108;2023-05-17T01:28:26;21.20;;;5.25;;
12591;SDS011;6361;52.120;5.108;2023-05-17T01:30:52;24.63;;;5.07;;
12591;SDS011;6361;52.120;5.108;2023-05-17T01:33:19;21.83;;;5.35;;
12591;SDS011;6361;52.120;5.108;2023-05-17T01:35:44;20.35;;;5.55;;
12591;SDS011;6361;52.120;5.108;2023-05-17T01:38:10;19.88;;;5.18;;
12591;SDS011;6361;52.120;5.108;2023-05-17T01:40:35;19.35;;;5.53;;
12591;SDS011;6361;52.120;5.108;2023-05-17T01:43:09;19.73;;;5.20;;
12591;SDS011;6361;52.120;5.108;2023-05-17T01:45:56;21.52;;;5.68;;
12591;SDS011;6361;52.120;5.108;2023-05-17T01:48:27;20.02;;;5.63;;
12591;SDS011;6361;52.120;5.108;2023-05-17T01:50:56;19.65;;;5.40;;
12591;SDS011;6361;52.120;5.108;2023-05-17T01:53:24;20.83;;;5.63;;
12591;SDS011;6361;52.120;5.108;2023-05-17T01:56:06;19.58;;;5.22;;
12591;SDS011;6361;52.120;5.108;2023-05-17T01:58:36;18.17;;;5.13;;
12591;SDS011;6361;52.120;5.108;2023-05-17T02:01:09;22.13;;;5.25;;
12591;SDS011;6361;52.120;5.108;2023-05-17T02:03:35;17.02;;;5.30;;
12591;SDS011;6361;52.120;5.108;2023-05-17T02:06:00;21.35;;;5.32;;
12591;SDS011;6361;52.120;5.108;2023-05-17T02:08:26;21.30;;;5.63;;
12591;SDS011;6361;52.120;5.108;2023-05-17T02:10:51;23.67;;;5.78;;
12591;SDS011;6361;52.120;5.108;2023-05-17T02:13:17;17.52;;;4.70;;
12591;SDS011;6361;52.120;5.108;2023-05-17T02:15:42;18.95;;;5.88;;
12591;SDS011;6361;52.120;5.108;2023-05-17T02:18:07;22.63;;;5.60;;
12591;SDS011;6361;52.120;5.108;2023-05-17T02:20:33;19.67;;;5.60;;
12591;SDS011;6361;52.120;5.108;2023-05-17T02:22:58;21.73;;;5.80;;
12591;SDS011;6361;52.120;5.108;2023-05-17T02:25:24;19.08;;;5.65;;
12591;SDS011;6361;52.120;5.108;2023-05-17T02:27:49;18.50;;;5.43;;
12591;SDS011;6361;52.120;5.108;2023-05-17T02:30:17;23.70;;;5.38;;
12591;SDS011;6361;52.120;5.108;2023-05-17T02:32:42;20.17;;;5.85;;
12591;SDS011;6361;52.120;5.108;2023-05-17T02:35:08;20.27;;;5.70;;
12591;SDS011;6361;52.120;5.108;2023-05-17T02:37:33;21.40;;;6.13;;
12591;SDS011;6361;52.120;5.108;2023-05-17T02:39:58;25.98;;;5.75;;
12591;SDS011;6361;52.120;5.108;2023-05-17T02:42:24;21.17;;;5.40;;
12591;SDS011;6361;52.120;5.108;2023-05-17T02:44:49;25.33;;;5.90;;
12591;SDS011;6361;52.120;5.108;2023-05-17T02:47:17;22.40;;;5.32;;
12591;SDS011;6361;52.120;5.108;2023-05-17T02:49:45;19.83;;;5.95;;
12591;SDS011;6361;52.120;5.108;2023-05-17T02:52:10;18.92;;;5.25;;
12591;SDS011;6361;52.120;5.108;2023-05-17T02:54:36;18.83;;;6.05;;
12591;SDS011;6361;52.120;5.108;2023-05-17T02:57:01;17.10;;;5.40;;
12591;SDS011;6361;52.120;5.108;2023-05-17T02:59:27;20.27;;;5.95;;
12591;SDS011;6361;52.120;5.108;2023-05-17T03:01:52;21.13;;;5.80;;
12591;SDS011;6361;52.120;5.108;2023-05-17T03:04:17;22.23;;;5.53;;
12591;SDS011;6361;52.120;5.108;2023-05-17T03:06:44;24.63;;;6.07;;
12591;SDS011;6361;52.120;5.108;2023-05-17T03:09:09;24.63;;;6.00;;
12591;SDS011;6361;52.120;5.108;2023-05-17T03:11:35;19.73;;;5.68;;
12591;SDS011;6361;52.120;5.108;2023-05-17T03:14:00;24.00;;;5.38;;
12591;SDS011;6361;52.120;5.108;2023-05-17T03:16:25;27.42;;;5.85;;
12591;SDS011;6361;52.120;5.108;2023-05-17T03:18:51;17.15;;;5.30;;
12591;SDS011;6361;52.120;5.108;2023-05-17T03:21:16;21.70;;;5.97;;
12591;SDS011;6361;52.120;5.108;2023-05-17T03:23:42;19.70;;;5.55;;
12591;SDS011;6361;52.120;5.108;2023-05-17T03:26:07;18.65;;;5.90;;
12591;SDS011;6361;52.120;5.108;2023-05-17T03:28:32;19.98;;;5.10;;
12591;SDS011;6361;52.120;5.108;2023-05-17T03:30:58;20.70;;;6.03;;
12591;SDS011;6361;52.120;5.108;2023-05-17T03:33:23;20.77;;;5.20;;
12591;SDS011;6361;52.120;5.108;2023-05-17T03:35:48;16.98;;;4.30;;
12591;SDS011;6361;52.120;5.108;2023-05-17T03:38:14;19.10;;;4.80;;
12591;SDS011;6361;52.120;5.108;2023-05-17T03:40:39;22.35;;;4.65;;
12591;SDS011;6361;52.120;5.108;2023-05-17T03:43:05;16.40;;;3.92;;
12591;SDS011;6361;52.120;5.108;2023-05-17T03:45:31;18.75;;;4.07;;
12591;SDS011;6361;52.120;5.108;2023-05-17T03:47:56;17.05;;;3.40;;
12591;SDS011;6361;52.120;5.108;2023-05-17T03:50:22;25.45;;;4.93;;
12591;SDS011;6361;52.120;5.108;2023-05-17T03:52:47;23.58;;;4.22;;
12591;SDS011;6361;52.120;5.108;2023-05-17T03:55:12;19.58;;;3.83;;
12591;SDS011;6361;52.120;5.108;2023-05-17T03:57:38;17.00;;;3.20;;
12591;SDS011;6361;52.120;5.108;2023-05-17T04:00:04;16.83;;;3.70;;
12591;SDS011;6361;52.120;5.108;2023-05-17T04:02:36;14.88;;;3.55;;
12591;SDS011;6361;52.120;5.108;2023-05-17T04:05:02;19.40;;;3.40;;
12591;SDS011;6361;52.120;5.108;2023-05-17T04:07:27;16.45;;;3.45;;
12591;SDS011;6361;52.120;5.108;2023-05-17T04:09:54;17.70;;;3.60;;
12591;SDS011;6361;52.120;5.108;2023-05-17T04:12:23;16.50;;;3.15;;
12591;SDS011;6361;52.120;5.108;2023-05-17T04:14:48;14.40;;;2.97;;
12591;SDS011;6361;52.120;5.108;2023-05-17T04:17:13;18.27;;;3.47;;
12591;SDS011;6361;52.120;5.108;2023-05-17T04:19:39;18.70;;;3.17;;
12591;SDS011;6361;52.120;5.108;2023-05-17T04:22:04;16.48;;;3.40;;
12591;SDS011;6361;52.120;5.108;2023-05-17T04:24:29;16.33;;;2.90;;
12591;SDS011;6361;52.120;5.108;2023-05-17T04:26:55;17.80;;;3.00;;
12591;SDS011;6361;52.120;5.108;2023-05-17T04:29:20;18.75;;;3.42;;
12591;SDS011;6361;52.120;5.108;2023-05-17T04:31:46;18.15;;;3.60;;
12591;SDS011;6361;52.120;5.108;2023-05-17T04:34:13;16.70;;;3.67;;
12591;SDS011;6361;52.120;5.108;2023-05-17T04:36:38;23.77;;;3.40;;
12591;SDS011;6361;52.120;5.108;2023-05-17T04:39:04;16.10;;;3.33;;
12591;SDS011;6361;52.120;5.108;2023-05-17T04:41:29;19.15;;;3.55;;
12591;SDS011;6361;52.120;5.108;2023-05-17T04:43:55;16.02;;;3.15;;
12591;SDS011;6361;52.120;5.108;2023-05-17T04:46:21;19.27;;;3.33;;
12591;SDS011;6361;52.120;5.108;2023-05-17T04:48:46;16.92;;;3.50;;
12591;SDS011;6361;52.120;5.108;2023-05-17T04:51:12;16.52;;;3.70;;
12591;SDS011;6361;52.120;5.108;2023-05-17T04:53:37;16.67;;;3.20;;
12591;SDS011;6361;52.120;5.108;2023-05-17T04:56:02;13.98;;;2.80;;
12591;SDS011;6361;52.120;5.108;2023-05-17T04:58:28;14.95;;;3.05;;
12591;SDS011;6361;52.120;5.108;2023-05-17T05:00:53;16.30;;;2.90;;
12591;SDS011;6361;52.120;5.108;2023-05-17T05:03:19;17.58;;;3.20;;
12591;SDS011;6361;52.120;5.108;2023-05-17T05:05:46;18.95;;;3.28;;
12591;SDS011;6361;52.120;5.108;2023-05-17T05:08:11;17.02;;;3.10;;
12591;SDS011;6361;52.120;5.108;2023-05-17T05:10:37;21.17;;;3.35;;
12591;SDS011;6361;52.120;5.108;2023-05-17T05:13:02;19.48;;;2.97;;
12591;SDS011;6361;52.120;5.108;2023-05-17T05:15:28;21.13;;;3.20;;
12591;SDS011;6361;52.120;5.108;2023-05-17T05:17:53;28.52;;;7.32;;
12591;SDS011;6361;52.120;5.108;2023-05-17T05:20:18;25.33;;;4.07;;
12591;SDS011;6361;52.120;5.108;2023-05-17T05:22:44;13.95;;;3.47;;
12591;SDS011;6361;52.120;5.108;2023-05-17T05:25:09;24.15;;;3.50;;
12591;SDS011;6361;52.120;5.108;2023-05-17T05:27:35;16.35;;;3.13;;
12591;SDS011;6361;52.120;5.108;2023-05-17T05:30:00;16.83;;;2.67;;
12591;SDS011;6361;52.120;5.108;2023-05-17T05:32:26;18.38;;;3.10;;
12591;SDS011;6361;52.120;5.108;2023-05-17T05:34:51;19.73;;;3.30;;
12591;SDS011;6361;52.120;5.108;2023-05-17T05:39:46;18.95;;;3.05;;
12591;SDS011;6361;52.120;5.108;2023-05-17T05:42:11;19.02;;;2.80;;
12591;SDS011;6361;52.120;5.108;2023-05-17T05:44:37;16.33;;;2.97;;
12591;SDS011;6361;52.120;5.108;2023-05-17T05:47:03;24.65;;;3.55;;
12591;SDS011;6361;52.120;5.108;2023-05-17T05:49:29;15.30;;;2.33;;
12591;SDS011;6361;52.120;5.108;2023-05-17T05:51:54;15.43;;;3.50;;
12591;SDS011;6361;52.120;5.108;2023-05-17T05:54:19;16.15;;;3.03;;
12591;SDS011;6361;52.120;5.108;2023-05-17T05:56:45;18.48;;;2.90;;
12591;SDS011;6361;52.120;5.108;2023-05-17T05:59:10;20.23;;;2.90;;
12591;SDS011;6361;52.120;5.108;2023-05-17T06:01:36;20.42;;;3.85;;
12591;SDS011;6361;52.120;5.108;2023-05-17T06:04:02;16.33;;;2.72;;
12591;SDS011;6361;52.120;5.108;2023-05-17T06:06:27;18.20;;;3.10;;
12591;SDS011;6361;52.120;5.108;2023-05-17T06:08:52;19.38;;;3.00;;
12591;SDS011;6361;52.120;5.108;2023-05-17T06:11:18;14.38;;;2.95;;
12591;SDS011;6361;52.120;5.108;2023-05-17T06:13:44;19.17;;;2.70;;
12591;SDS011;6361;52.120;5.108;2023-05-17T06:16:10;15.77;;;2.55;;
12591;SDS011;6361;52.120;5.108;2023-05-17T06:18:35;16.30;;;2.75;;
12591;SDS011;6361;52.120;5.108;2023-05-17T06:21:00;18.63;;;3.17;;
12591;SDS011;6361;52.120;5.108;2023-05-17T06:23:26;16.90;;;2.85;;
12591;SDS011;6361;52.120;5.108;2023-05-17T06:25:51;14.15;;;2.40;;
12591;SDS011;6361;52.120;5.108;2023-05-17T06:28:17;17.55;;;2.42;;
12591;SDS011;6361;52.120;5.108;2023-05-17T06:30:42;18.85;;;2.40;;
12591;SDS011;6361;52.120;5.108;2023-05-17T06:33:08;13.70;;;2.60;;
12591;SDS011;6361;52.120;5.108;2023-05-17T06:35:33;17.17;;;2.60;;
12591;SDS011;6361;52.120;5.108;2023-05-17T06:38:00;14.73;;;2.30;;
12591;SDS011;6361;52.120;5.108;2023-05-17T06:40:25;11.60;;;1.90;;
12591;SDS011;6361;52.120;5.108;2023-05-17T06:42:50;14.65;;;2.55;;
12591;SDS011;6361;52.120;5.108;2023-05-17T06:45:16;12.02;;;2.38;;
12591;SDS011;6361;52.120;5.108;2023-05-17T06:47:41;12.70;;;2.00;;
12591;SDS011;6361;52.120;5.108;2023-05-17T06:50:07;11.88;;;2.08;;
12591;SDS011;6361;52.120;5.108;2023-05-17T06:52:33;11.38;;;2.15;;
12591;SDS011;6361;52.120;5.108;2023-05-17T06:54:59;14.15;;;2.40;;
12591;SDS011;6361;52.120;5.108;2023-05-17T06:57:24;12.50;;;2.30;;
12591;SDS011;6361;52.120;5.108;2023-05-17T06:59:50;16.35;;;2.63;;
12591;SDS011;6361;52.120;5.108;2023-05-17T07:02:16;15.00;;;2.95;;
12591;SDS011;6361;52.120;5.108;2023-05-17T07:04:42;18.77;;;2.67;;
12591;SDS011;6361;52.120;5.108;2023-05-17T07:07:07;11.18;;;2.20;;
12591;SDS011;6361;52.120;5.108;2023-05-17T07:09:32;19.77;;;5.75;;
12591;SDS011;6361;52.120;5.108;2023-05-17T07:11:58;15.65;;;2.65;;
12591;SDS011;6361;52.120;5.108;2023-05-17T07:14:26;14.52;;;2.25;;
12591;SDS011;6361;52.120;5.108;2023-05-17T07:16:51;11.77;;;1.92;;
12591;SDS011;6361;52.120;5.108;2023-05-17T07:19:17;13.18;;;1.98;;
12591;SDS011;6361;52.120;5.108;2023-05-17T07:21:42;12.55;;;2.55;;
12591;SDS011;6361;52.120;5.108;2023-05-17T07:24:08;12.88;;;2.30;;
12591;SDS011;6361;52.120;5.108;2023-05-17T07:26:33;16.52;;;2.35;;
12591;SDS011;6361;52.120;5.108;2023-05-17T07:28:59;10.68;;;1.80;;
12591;SDS011;6361;52.120;5.108;2023-05-17T07:31:24;12.10;;;2.00;;
12591;SDS011;6361;52.120;5.108;2023-05-17T07:33:50;15.95;;;3.03;;
12591;SDS011;6361;52.120;5.108;2023-05-17T07:36:15;11.45;;;2.17;;
12591;SDS011;6361;52.120;5.108;2023-05-17T07:38:40;9.50;;;2.00;;
12591;SDS011;6361;52.120;5.108;2023-05-17T07:41:06;11.50;;;1.67;;
12591;SDS011;6361;52.120;5.108;2023-05-17T07:43:34;9.63;;;1.90;;
12591;SDS011;6361;52.120;5.108;2023-05-17T07:46:00;13.88;;;2.15;;
12591;SDS011;6361;52.120;5.108;2023-05-17T07:48:26;7.82;;;1.73;;
12591;SDS011;6361;52.120;5.108;2023-05-17T07:50:51;12.55;;;1.70;;
12591;SDS011;6361;52.120;5.108;2023-05-17T07:53:16;9.90;;;2.22;;
12591;SDS011;6361;52.120;5.108;2023-05-17T07:55:42;10.25;;;2.20;;
12591;SDS011;6361;52.120;5.108;2023-05-17T07:58:10;14.32;;;2.63;;
12591;SDS011;6361;52.120;5.108;2023-05-17T08:00:36;10.32;;;1.58;;
12591;SDS011;6361;52.120;5.108;2023-05-17T08:03:02;10.50;;;1.77;;
12591;SDS011;6361;52.120;5.108;2023-05-17T08:05:27;7.00;;;1.75;;
12591;SDS011;6361;52.120;5.108;2023-05-17T08:07:53;12.32;;;2.15;;
12591;SDS011;6361;52.120;5.108;2023-05-17T08:10:18;8.27;;;1.60;;
12591;SDS011;6361;52.120;5.108;2023-05-17T08:12:43;11.05;;;1.50;;
12591;SDS011;6361;52.120;5.108;2023-05-17T08:15:10;9.50;;;1.40;;
12591;SDS011;6361;52.120;5.108;2023-05-17T08:17:35;8.98;;;1.42;;
12591;SDS011;6361;52.120;5.108;2023-05-17T08:20:01;11.38;;;1.60;;
12591;SDS011;6361;52.120;5.108;2023-05-17T08:22:26;9.48;;;1.77;;
12591;SDS011;6361;52.120;5.108;2023-05-17T08:24:51;11.13;;;1.83;;
12591;SDS011;6361;52.120;5.108;2023-05-17T08:27:17;8.48;;;1.60;;
12591;SDS011;6361;52.120;5.108;2023-05-17T08:29:42;11.35;;;1.67;;
12591;SDS011;6361;52.120;5.108;2023-05-17T08:32:08;6.30;;;1.50;;
12591;SDS011;6361;52.120;5.108;2023-05-17T08:34:33;8.90;;;1.90;;
12591;SDS011;6361;52.120;5.108;2023-05-17T08:36:59;5.88;;;1.90;;
12591;SDS011;6361;52.120;5.108;2023-05-17T08:39:24;9.82;;;1.98;;
12591;SDS011;6361;52.120;5.108;2023-05-17T08:41:50;8.55;;;1.90;;
12591;SDS011;6361;52.120;5.108;2023-05-17T08:44:15;10.35;;;1.73;;
12591;SDS011;6361;52.120;5.108;2023-05-17T08:46:42;7.85;;;1.60;;
12591;SDS011;6361;52.120;5.108;2023-05-17T08:49:21;6.68;;;1.35;;
12591;SDS011;6361;52.120;5.108;2023-05-17T08:51:48;7.10;;;1.33;;
12591;SDS011;6361;52.120;5.108;2023-05-17T08:54:14;8.55;;;1.50;;
12591;SDS011;6361;52.120;5.108;2023-05-17T08:56:40;8.57;;;1.30;;
12591;SDS011;6361;52.120;5.108;2023-05-17T08:59:07;8.00;;;1.60;;
12591;SDS011;6361;52.120;5.108;2023-05-17T09:01:34;8.77;;;1.60;;
12591;SDS011;6361;52.120;5.108;2023-05-17T09:04:00;10.70;;;1.55;;
12591;SDS011;6361;52.120;5.108;2023-05-17T09:06:26;9.60;;;1.75;;
12591;SDS011;6361;52.120;5.108;2023-05-17T09:08:52;11.35;;;1.70;;
12591;SDS011;6361;52.120;5.108;2023-05-17T09:11:25;7.97;;;1.50;;
12591;SDS011;6361;52.120;5.108;2023-05-17T09:13:52;7.95;;;1.70;;
12591;SDS011;6361;52.120;5.108;2023-05-17T09:16:18;14.23;;;2.30;;
12591;SDS011;6361;52.120;5.108;2023-05-17T09:18:51;9.48;;;1.92;;
12591;SDS011;6361;52.120;5.108;2023-05-17T09:21:21;6.53;;;1.50;;
12591;SDS011;6361;52.120;5.108;2023-05-17T09:23:47;9.10;;;1.65;;
12591;SDS011;6361;52.120;5.108;2023-05-17T09:26:12;13.57;;;1.75;;
12591;SDS011;6361;52.120;5.108;2023-05-17T09:28:39;10.65;;;3.53;;
12591;SDS011;6361;52.120;5.108;2023-05-17T09:31:06;14.60;;;2.08;;
12591;SDS011;6361;52.120;5.108;2023-05-17T09:33:32;7.75;;;1.58;;
12591;SDS011;6361;52.120;5.108;2023-05-17T09:35:59;10.38;;;1.50;;
12591;SDS011;6361;52.120;5.108;2023-05-17T09:38:26;10.60;;;2.03;;
12591;SDS011;6361;52.120;5.108;2023-05-17T09:40:51;9.48;;;1.80;;
12591;SDS011;6361;52.120;5.108;2023-05-17T09:43:21;7.10;;;1.60;;
12591;SDS011;6361;52.120;5.108;2023-05-17T09:45:57;11.48;;;1.45;;
12591;SDS011;6361;52.120;5.108;2023-05-17T09:48:24;7.22;;;1.15;;
12591;SDS011;6361;52.120;5.108;2023-05-17T09:50:50;6.70;;;1.55;;
12591;SDS011;6361;52.120;5.108;2023-05-17T09:53:26;10.20;;;1.95;;
12591;SDS011;6361;52.120;5.108;2023-05-17T09:55:52;11.45;;;1.40;;
12591;SDS011;6361;52.120;5.108;2023-05-17T09:58:20;9.38;;;1.55;;
12591;SDS011;6361;52.120;5.108;2023-05-17T10:00:46;10.35;;;1.60;;
12591;SDS011;6361;52.120;5.108;2023-05-17T10:03:18;11.50;;;1.77;;
12591;SDS011;6361;52.120;5.108;2023-05-17T10:05:43;9.05;;;1.70;;
12591;SDS011;6361;52.120;5.108;2023-05-17T10:08:10;8.52;;;1.58;;
12591;SDS011;6361;52.120;5.108;2023-05-17T10:10:37;8.23;;;1.60;;
12591;SDS011;6361;52.120;5.108;2023-05-17T10:13:04;5.60;;;1.42;;
12591;SDS011;6361;52.120;5.108;2023-05-17T10:15:30;5.50;;;1.52;;
12591;SDS011;6361;52.120;5.108;2023-05-17T10:17:57;9.85;;;1.60;;
12591;SDS011;6361;52.120;5.108;2023-05-17T10:20:23;5.50;;;1.30;;
12591;SDS011;6361;52.120;5.108;2023-05-17T10:22:49;9.50;;;1.65;;
12591;SDS011;6361;52.120;5.108;2023-05-17T10:25:14;6.22;;;1.40;;
12591;SDS011;6361;52.120;5.108;2023-05-17T10:27:40;5.13;;;1.50;;
12591;SDS011;6361;52.120;5.108;2023-05-17T10:30:06;5.78;;;1.52;;
12591;SDS011;6361;52.120;5.108;2023-05-17T10:32:32;6.78;;;1.35;;
12591;SDS011;6361;52.120;5.108;2023-05-17T10:34:57;10.35;;;1.70;;
12591;SDS011;6361;52.120;5.108;2023-05-17T10:37:23;12.63;;;1.85;;
12591;SDS011;6361;52.120;5.108;2023-05-17T10:39:49;12.45;;;1.58;;
12591;SDS011;6361;52.120;5.108;2023-05-17T10:42:16;8.30;;;1.58;;
12591;SDS011;6361;52.120;5.108;2023-05-17T10:44:41;6.70;;;1.60;;
12591;SDS011;6361;52.120;5.108;2023-05-17T10:47:07;5.70;;;1.40;;
12591;SDS011;6361;52.120;5.108;2023-05-17T10:49:35;10.40;;;2.67;;
12591;SDS011;6361;52.120;5.108;2023-05-17T10:52:11;5.25;;;1.45;;
12591;SDS011;6361;52.120;5.108;2023-05-17T10:54:41;6.20;;;1.70;;
12591;SDS011;6361;52.120;5.108;2023-05-17T10:57:07;11.60;;;1.63;;
12591;SDS011;6361;52.120;5.108;2023-05-17T10:59:33;10.52;;;1.83;;
12591;SDS011;6361;52.120;5.108;2023-05-17T11:02:03;7.65;;;1.80;;
12591;SDS011;6361;52.120;5.108;2023-05-17T11:04:33;7.43;;;1.60;;
12591;SDS011;6361;52.120;5.108;2023-05-17T11:12:43;6.60;;;1.42;;
12591;SDS011;6361;52.120;5.108;2023-05-17T11:15:12;7.57;;;1.52;;
12591;SDS011;6361;52.120;5.108;2023-05-17T11:22:42;10.57;;;1.60;;
12591;SDS011;6361;52.120;5.108;2023-05-17T11:25:16;8.82;;;1.75;;
12591;SDS011;6361;52.120;5.108;2023-05-17T11:27:44;7.20;;;1.80;;
12591;SDS011;6361;52.120;5.108;2023-05-17T11:30:27;7.85;;;1.90;;
12591;SDS011;6361;52.120;5.108;2023-05-17T11:32:56;9.80;;;1.60;;
12591;SDS011;6361;52.120;5.108;2023-05-17T11:35:25;6.85;;;1.63;;
12591;SDS011;6361;52.120;5.108;2023-05-17T11:37:52;9.38;;;1.63;;
12591;SDS011;6361;52.120;5.108;2023-05-17T11:40:25;8.43;;;1.80;;
12591;SDS011;6361;52.120;5.108;2023-05-17T11:45:40;7.90;;;1.52;;
12591;SDS011;6361;52.120;5.108;2023-05-17T11:50:36;3.70;;;1.35;;
12591;SDS011;6361;52.120;5.108;2023-05-17T11:53:05;9.85;;;1.77;;
12591;SDS011;6361;52.120;5.108;2023-05-17T11:55:33;7.88;;;1.83;;
12591;SDS011;6361;52.120;5.108;2023-05-17T11:58:02;6.38;;;1.52;;
12591;SDS011;6361;52.120;5.108;2023-05-17T12:00:28;8.43;;;1.58;;
12591;SDS011;6361;52.120;5.108;2023-05-17T12:02:54;11.18;;;1.73;;
12591;SDS011;6361;52.120;5.108;2023-05-17T12:05:19;10.25;;;1.98;;
12591;SDS011;6361;52.120;5.108;2023-05-17T12:07:45;10.07;;;2.17;;
12591;SDS011;6361;52.120;5.108;2023-05-17T12:10:13;10.10;;;1.65;;
12591;SDS011;6361;52.120;5.108;2023-05-17T12:12:39;7.78;;;1.70;;
12591;SDS011;6361;52.120;5.108;2023-05-17T12:15:05;7.82;;;1.70;;
12591;SDS011;6361;52.120;5.108;2023-05-17T12:17:34;6.85;;;2.03;;
12591;SDS011;6361;52.120;5.108;2023-05-17T12:20:08;9.77;;;1.73;;
12591;SDS011;6361;52.120;5.108;2023-05-17T12:22:34;11.82;;;2.20;;
12591;SDS011;6361;52.120;5.108;2023-05-17T12:25:19;10.27;;;2.00;;
12591;SDS011;6361;52.120;5.108;2023-05-17T12:27:47;9.50;;;1.75;;
12591;SDS011;6361;52.120;5.108;2023-05-17T12:30:14;7.65;;;1.73;;
12591;SDS011;6361;52.120;5.108;2023-05-17T12:32:40;8.93;;;2.03;;
12591;SDS011;6361;52.120;5.108;2023-05-17T12:35:05;11.75;;;1.88;;
12591;SDS011;6361;52.120;5.108;2023-05-17T12:37:31;9.82;;;1.73;;
12591;SDS011;6361;52.120;5.108;2023-05-17T12:39:58;10.98;;;1.90;;
12591;SDS011;6361;52.120;5.108;2023-05-17T12:42:25;12.25;;;1.88;;
12591;SDS011;6361;52.120;5.108;2023-05-17T12:44:51;11.25;;;2.20;;
12591;SDS011;6361;52.120;5.108;2023-05-17T12:47:16;6.82;;;2.08;;
12591;SDS011;6361;52.120;5.108;2023-05-17T12:49:52;11.23;;;2.30;;
12591;SDS011;6361;52.120;5.108;2023-05-17T12:52:18;6.38;;;1.80;;
12591;SDS011;6361;52.120;5.108;2023-05-17T12:54:43;7.75;;;2.10;;
12591;SDS011;6361;52.120;5.108;2023-05-17T12:57:11;8.35;;;1.90;;
12591;SDS011;6361;52.120;5.108;2023-05-17T12:59:46;10.15;;;2.00;;
12591;SDS011;6361;52.120;5.108;2023-05-17T13:02:12;11.48;;;2.13;;
12591;SDS011;6361;52.120;5.108;2023-05-17T13:04:40;8.85;;;2.08;;
12591;SDS011;6361;52.120;5.108;2023-05-17T13:07:05;8.18;;;2.20;;
12591;SDS011;6361;52.120;5.108;2023-05-17T13:09:32;8.75;;;2.00;;
12591;SDS011;6361;52.120;5.108;2023-05-17T13:12:03;12.05;;;2.30;;
12591;SDS011;6361;52.120;5.108;2023-05-17T13:14:40;11.50;;;2.08;;
12591;SDS011;6361;52.120;5.108;2023-05-17T13:17:08;9.23;;;2.75;;
12591;SDS011;6361;52.120;5.108;2023-05-17T13:19:34;9.40;;;2.13;;
12591;SDS011;6361;52.120;5.108;2023-05-17T13:22:00;8.15;;;1.90;;
12591;SDS011;6361;52.120;5.108;2023-05-17T13:24:29;8.27;;;2.00;;
12591;SDS011;6361;52.120;5.108;2023-05-17T13:26:56;9.10;;;1.90;;
12591;SDS011;6361;52.120;5.108;2023-05-17T13:29:21;9.35;;;2.60;;
12591;SDS011;6361;52.120;5.108;2023-05-17T13:31:47;9.20;;;2.55;;
12591;SDS011;6361;52.120;5.108;2023-05-17T13:34:12;7.03;;;2.00;;
12591;SDS011;6361;52.120;5.108;2023-05-17T13:36:38;10.02;;;1.90;;
12591;SDS011;6361;52.120;5.108;2023-05-17T13:39:03;9.05;;;1.70;;
12591;SDS011;6361;52.120;5.108;2023-05-17T13:41:28;10.82;;;1.92;;
12591;SDS011;6361;52.120;5.108;2023-05-17T13:43:54;11.55;;;1.98;;
12591;SDS011;6361;52.120;5.108;2023-05-17T13:46:21;8.07;;;1.80;;
12591;SDS011;6361;52.120;5.108;2023-05-17T13:48:46;9.60;;;2.50;;
12591;SDS011;6361;52.120;5.108;2023-05-17T13:51:12;9.02;;;2.47;;
12591;SDS011;6361;52.120;5.108;2023-05-17T13:53:37;10.48;;;2.25;;
12591;SDS011;6361;52.120;5.108;2023-05-17T13:56:02;9.30;;;2.17;;
12591;SDS011;6361;52.120;5.108;2023-05-17T13:58:28;9.98;;;2.58;;
12591;SDS011;6361;52.120;5.108;2023-05-17T14:00:53;8.48;;;2.13;;
12591;SDS011;6361;52.120;5.108;2023-05-17T14:03:19;10.20;;;2.40;;
12591;SDS011;6361;52.120;5.108;2023-05-17T14:05:45;7.38;;;1.85;;
12591;SDS011;6361;52.120;5.108;2023-05-17T14:08:13;10.10;;;2.03;;
12591;SDS011;6361;52.120;5.108;2023-05-17T14:10:39;8.98;;;2.45;;
12591;SDS011;6361;52.120;5.108;2023-05-17T14:13:04;7.75;;;2.05;;
12591;SDS011;6361;52.120;5.108;2023-05-17T14:15:30;11.73;;;2.35;;
12591;SDS011;6361;52.120;5.108;2023-05-17T14:18:01;11.48;;;2.30;;
12591;SDS011;6361;52.120;5.108;2023-05-17T14:20:27;7.70;;;2.13;;
12591;SDS011;6361;52.120;5.108;2023-05-17T14:22:52;10.32;;;2.42;;
12591;SDS011;6361;52.120;5.108;2023-05-17T14:25:17;10.05;;;2.35;;
12591;SDS011;6361;52.120;5.108;2023-05-17T14:27:43;10.00;;;2.10;;
12591;SDS011;6361;52.120;5.108;2023-05-17T14:30:09;11.70;;;2.42;;
12591;SDS011;6361;52.120;5.108;2023-05-17T14:32:34;11.40;;;2.13;;
12591;SDS011;6361;52.120;5.108;2023-05-17T14:35:00;11.20;;;2.20;;
12591;SDS011;6361;52.120;5.108;2023-05-17T14:37:25;7.85;;;2.17;;
12591;SDS011;6361;52.120;5.108;2023-05-17T14:39:51;8.05;;;1.98;;
12591;SDS011;6361;52.120;5.108;2023-05-17T14:42:16;8.48;;;2.08;;
12591;SDS011;6361;52.120;5.108;2023-05-17T14:44:41;10.18;;;2.22;;
12591;SDS011;6361;52.120;5.108;2023-05-17T14:47:07;13.13;;;2.10;;
12591;SDS011;6361;52.120;5.108;2023-05-17T14:49:32;12.13;;;2.30;;
12591;SDS011;6361;52.120;5.108;2023-05-17T14:51:58;8.43;;;2.25;;
12591;SDS011;6361;52.120;5.108;2023-05-17T14:54:23;10.05;;;2.28;;
12591;SDS011;6361;52.120;5.108;2023-05-17T14:56:50;13.95;;;2.50;;
12591;SDS011;6361;52.120;5.108;2023-05-17T14:59:15;6.20;;;1.90;;
12591;SDS011;6361;52.120;5.108;2023-05-17T15:01:41;11.68;;;2.20;;
12591;SDS011;6361;52.120;5.108;2023-05-17T15:04:07;10.43;;;2.53;;
12591;SDS011;6361;52.120;5.108;2023-05-17T15:06:34;12.18;;;2.78;;
12591;SDS011;6361;52.120;5.108;2023-05-17T15:09:00;7.43;;;2.10;;
12591;SDS011;6361;52.120;5.108;2023-05-17T15:11:27;15.98;;;3.00;;
12591;SDS011;6361;52.120;5.108;2023-05-17T15:13:53;9.05;;;2.47;;